createdAt,value
2019-06-15T00:00:32.099Z,26.57
2019-06-15T00:03:01.098Z,22.47
2019-06-15T00:05:27.825Z,25.27
2019-06-15T00:07:55.287Z,21.97
2019-06-15T00:10:23.222Z,26.50
2019-06-15T00:12:50.057Z,28.73
2019-06-15T00:15:16.712Z,24.63
2019-06-15T00:17:43.442Z,24.70
2019-06-15T00:20:10.887Z,27.83
2019-06-15T00:22:37.952Z,24.87
2019-06-15T00:25:05.275Z,22.77
2019-06-15T00:27:31.927Z,25.60
2019-06-15T00:29:58.567Z,23.90
2019-06-15T00:32:26.166Z,26.37
2019-06-15T00:34:53.638Z,26.80
2019-06-15T00:37:20.271Z,29.53
2019-06-15T00:39:47.267Z,23.50
2019-06-15T00:42:13.987Z,27.10
2019-06-15T00:44:40.731Z,33.23
2019-06-15T00:47:07.782Z,29.50
2019-06-15T00:49:35.038Z,24.27
2019-06-15T00:52:02.086Z,24.80
2019-06-15T00:54:29.038Z,30.40
2019-06-15T00:56:57.310Z,19.63
2019-06-15T00:59:24.394Z,24.27
2019-06-15T01:01:52.744Z,25.60
2019-06-15T01:04:20.098Z,24.27
2019-06-15T01:06:47.355Z,21.97
2019-06-15T01:09:14.303Z,24.13
2019-06-15T01:11:41.227Z,19.77
2019-06-15T01:14:08.210Z,20.17
2019-06-15T01:16:35.862Z,23.00
2019-06-15T01:19:03.510Z,28.10
2019-06-15T01:21:31.875Z,18.37
2019-06-15T01:23:58.907Z,18.70
2019-06-15T01:26:25.852Z,16.30
2019-06-15T01:28:52.657Z,22.50
2019-06-15T01:31:20.278Z,15.57
2019-06-15T01:33:47.627Z,17.90
2019-06-15T01:36:14.675Z,15.93
2019-06-15T01:38:41.338Z,21.70
2019-06-15T01:41:08.767Z,17.43
2019-06-15T01:43:37.048Z,14.40
2019-06-15T01:46:04.647Z,14.53
2019-06-15T01:48:33.708Z,15.67
2019-06-15T01:51:00.851Z,16.70
2019-06-15T01:53:29.944Z,15.87
2019-06-15T01:55:56.728Z,20.03
2019-06-15T01:58:23.628Z,14.60
2019-06-15T02:00:51.197Z,14.83
2019-06-15T02:03:19.678Z,17.40
2019-06-15T02:05:47.020Z,19.67
2019-06-15T02:08:14.386Z,17.40
2019-06-15T02:10:41.043Z,16.83
2019-06-15T02:13:08.369Z,16.37
2019-06-15T02:15:35.931Z,18.03
2019-06-15T02:18:03.397Z,17.30
2019-06-15T02:20:31.383Z,23.57
2019-06-15T02:22:58.027Z,18.27
2019-06-15T02:25:35.277Z,22.33
2019-06-15T02:27:54.230Z,18.80
2019-06-15T02:30:26.405Z,23.03
2019-06-15T02:32:54.366Z,18.00
2019-06-15T02:35:21.723Z,19.83
2019-06-15T02:37:48.668Z,19.13
2019-06-15T02:40:16.129Z,20.90
2019-06-15T02:42:43.480Z,21.90
2019-06-15T02:45:10.423Z,24.10
2019-06-15T02:47:37.960Z,21.10
2019-06-15T02:50:06.563Z,20.40
2019-06-15T02:52:33.322Z,21.23
2019-06-15T02:55:01.376Z,21.10
2019-06-15T02:57:28.159Z,17.80
2019-06-15T02:59:55.077Z,22.33
2019-06-15T03:02:21.698Z,23.67
2019-06-15T03:04:48.331Z,25.13
2019-06-15T03:07:14.955Z,21.70
2019-06-15T03:09:41.790Z,24.07
2019-06-15T03:12:08.530Z,20.63
2019-06-15T03:14:35.547Z,22.50
2019-06-15T03:17:02.175Z,19.67
2019-06-15T03:19:29.280Z,17.17
2019-06-15T03:21:55.911Z,18.77
2019-06-15T03:24:22.531Z,18.40
2019-06-15T03:26:50.959Z,16.60
2019-06-15T03:29:18.147Z,22.90
2019-06-15T03:31:45.144Z,16.90
2019-06-15T03:34:11.764Z,25.13
2019-06-15T03:36:38.835Z,20.10
2019-06-15T03:39:06.287Z,16.67
2019-06-15T03:41:33.251Z,16.30
2019-06-15T03:44:00.271Z,17.93
2019-06-15T03:46:27.155Z,17.03
2019-06-15T03:48:53.811Z,15.13
2019-06-15T03:51:21.103Z,18.40
2019-06-15T03:53:48.470Z,16.80
2019-06-15T03:56:21.466Z,20.67
2019-06-15T03:58:44.867Z,15.87
2019-06-15T04:01:18.417Z,12.70
2019-06-15T04:03:45.140Z,13.83
2019-06-15T04:06:11.883Z,17.03
2019-06-15T04:08:38.639Z,23.30
2019-06-15T04:11:05.275Z,16.50
2019-06-15T04:13:31.910Z,17.70
2019-06-15T04:15:58.539Z,17.83
2019-06-15T04:18:25.518Z,16.73
2019-06-15T04:20:52.846Z,14.70
2019-06-15T04:23:20.100Z,17.37
2019-06-15T04:25:48.743Z,23.80
2019-06-15T04:28:15.739Z,17.70
2019-06-15T04:30:48.384Z,20.30
2019-06-15T04:33:15.398Z,19.73
2019-06-15T04:35:43.189Z,22.53
2019-06-15T04:38:10.751Z,16.80
2019-06-15T04:40:37.383Z,22.90
2019-06-15T04:43:04.043Z,21.17
2019-06-15T04:45:30.672Z,20.63
2019-06-15T04:47:57.319Z,19.80
2019-06-15T04:50:25.564Z,20.23
2019-06-15T04:52:52.251Z,23.27
2019-06-15T04:55:18.877Z,16.97
2019-06-15T04:57:47.212Z,18.53
2019-06-15T05:00:14.202Z,25.90
2019-06-15T05:02:40.881Z,17.43
2019-06-15T05:05:07.808Z,20.83
2019-06-15T05:07:36.235Z,20.30
2019-06-15T05:10:03.791Z,23.40
2019-06-15T05:12:30.440Z,25.60
2019-06-15T05:14:58.072Z,18.97
2019-06-15T05:17:24.719Z,25.53
2019-06-15T05:19:51.435Z,20.17
2019-06-15T05:22:18.095Z,20.43
2019-06-15T05:24:46.523Z,19.00
2019-06-15T05:27:13.774Z,23.77
2019-06-15T05:29:40.487Z,26.10
2019-06-15T05:32:07.181Z,24.07
2019-06-15T05:34:33.839Z,21.77
2019-06-15T05:37:00.491Z,21.57
2019-06-15T05:39:28.912Z,22.33
2019-06-15T05:41:56.988Z,20.73
2019-06-15T05:44:23.716Z,26.03
2019-06-15T05:46:51.077Z,22.03
2019-06-15T05:49:18.518Z,22.87
2019-06-15T05:51:46.231Z,17.97
2019-06-15T05:54:12.911Z,20.00
2019-06-15T05:56:39.623Z,21.33
2019-06-15T05:59:06.619Z,22.20
2019-06-15T06:01:34.813Z,18.80
2019-06-15T06:04:01.446Z,23.50
2019-06-15T06:06:28.819Z,19.40
2019-06-15T06:08:56.125Z,21.80
2019-06-15T06:11:22.765Z,18.77
2019-06-15T06:13:50.119Z,16.60
2019-06-15T06:16:16.759Z,17.63
2019-06-15T06:18:43.402Z,21.93
2019-06-15T06:21:11.015Z,18.27
2019-06-15T06:23:38.410Z,16.03
2019-06-15T06:26:05.036Z,24.90
2019-06-15T06:28:33.735Z,19.60
2019-06-15T06:31:02.928Z,19.20
2019-06-15T06:33:29.986Z,22.67
2019-06-15T06:35:57.749Z,26.30
2019-06-15T06:38:24.478Z,21.60
2019-06-15T06:40:51.130Z,20.53
2019-06-15T06:43:21.892Z,20.57
2019-06-15T06:45:50.335Z,28.77
2019-06-15T06:48:16.970Z,21.43
2019-06-15T06:50:45.666Z,22.03
2019-06-15T06:53:12.318Z,21.23
2019-06-15T06:55:38.967Z,22.10
2019-06-15T06:58:05.749Z,21.43
2019-06-15T07:00:32.513Z,20.40
2019-06-15T07:02:59.359Z,23.43
2019-06-15T07:05:27.999Z,21.83
2019-06-15T07:07:55.036Z,29.03
2019-06-15T07:10:21.923Z,18.03
2019-06-15T07:12:48.908Z,20.60
2019-06-15T07:15:15.823Z,19.07
2019-06-15T07:17:42.478Z,21.00
2019-06-15T07:20:10.404Z,25.03
2019-06-15T07:22:37.891Z,18.50
2019-06-15T07:25:04.991Z,21.83
2019-06-15T07:27:32.731Z,23.70
2019-06-15T07:29:59.363Z,21.60
2019-06-15T07:32:26.151Z,20.13
2019-06-15T07:34:52.843Z,22.73
2019-06-15T07:37:21.289Z,22.03
2019-06-15T07:39:49.392Z,34.17
2019-06-15T07:42:18.135Z,21.47
2019-06-15T07:44:45.126Z,22.03
2019-06-15T07:47:12.961Z,25.03
2019-06-15T07:49:43.723Z,21.43
2019-06-15T07:52:10.448Z,21.93
2019-06-15T07:54:37.329Z,20.30
2019-06-15T07:57:08.700Z,18.00
2019-06-15T07:59:35.781Z,23.70
2019-06-15T08:02:02.533Z,19.00
2019-06-15T08:04:29.599Z,15.80
2019-06-15T08:06:56.249Z,17.30
2019-06-15T08:09:22.924Z,19.37
2019-06-15T08:11:50.030Z,17.00
2019-06-15T08:14:16.931Z,15.70
2019-06-15T08:16:44.496Z,15.03
2019-06-15T08:19:15.959Z,14.50
2019-06-15T08:21:42.929Z,18.93
2019-06-15T08:24:12.501Z,18.13
2019-06-15T08:26:39.569Z,14.70
2019-06-15T08:29:07.732Z,12.73
2019-06-15T08:31:35.087Z,14.10
2019-06-15T08:34:06.739Z,12.20
2019-06-15T08:36:34.985Z,14.20
2019-06-15T08:39:01.665Z,12.20
2019-06-15T08:41:36.380Z,12.00
2019-06-15T08:44:04.667Z,11.80
2019-06-15T08:46:32.321Z,10.40
2019-06-15T08:48:58.967Z,13.03
2019-06-15T08:51:31.054Z,11.67
2019-06-15T08:53:59.060Z,9.60
2019-06-15T08:56:25.710Z,10.07
2019-06-15T08:58:55.786Z,8.97
2019-06-15T09:01:21.254Z,8.67
2019-06-15T09:03:49.521Z,9.73
2019-06-15T09:06:16.531Z,8.23
2019-06-15T09:08:43.392Z,10.87
2019-06-15T09:11:11.016Z,10.47
2019-06-15T09:13:38.775Z,14.97
2019-06-15T09:16:05.405Z,12.57
2019-06-15T09:18:32.643Z,10.70
2019-06-15T09:21:00.604Z,8.23
2019-06-15T09:23:29.521Z,9.57
2019-06-15T09:25:57.860Z,8.00
2019-06-15T09:28:26.344Z,9.33
2019-06-15T09:30:53.611Z,7.90
2019-06-15T09:33:20.979Z,8.90
2019-06-15T09:35:47.631Z,8.33
2019-06-15T09:38:15.145Z,9.17
2019-06-15T09:40:43.489Z,7.93
2019-06-15T09:43:10.528Z,9.33
2019-06-15T09:45:37.223Z,8.40
2019-06-15T09:48:04.253Z,8.60
2019-06-15T09:50:31.579Z,7.60
2019-06-15T09:53:00.104Z,9.93
2019-06-15T09:55:26.753Z,8.27
2019-06-15T09:57:54.023Z,9.00
2019-06-15T10:00:21.700Z,9.67
2019-06-15T10:02:48.366Z,8.60
2019-06-15T10:05:15.427Z,9.27
2019-06-15T10:07:42.371Z,11.57
2019-06-15T10:10:09.620Z,10.67
2019-06-15T10:12:36.383Z,8.60
2019-06-15T10:15:04.740Z,11.50
2019-06-15T10:17:31.903Z,8.40
2019-06-15T10:19:58.670Z,13.40
2019-06-15T10:22:25.601Z,11.37
2019-06-15T10:24:54.392Z,8.53
2019-06-15T10:27:21.784Z,7.67
2019-06-15T10:29:49.172Z,12.43
2019-06-15T10:32:15.893Z,10.50
2019-06-15T10:34:43.839Z,10.87
2019-06-15T10:39:50.475Z,9.40
2019-06-15T10:42:17.125Z,9.60
2019-06-15T10:44:44.566Z,9.23
2019-06-15T10:47:11.351Z,9.20
2019-06-15T10:49:38.343Z,14.53
2019-06-15T10:52:05.238Z,12.70
2019-06-15T10:54:34.457Z,9.00
2019-06-15T10:57:01.086Z,10.43
2019-06-15T10:59:28.079Z,11.37
2019-06-15T11:01:55.180Z,11.50
2019-06-15T11:04:26.486Z,8.90
2019-06-15T11:06:55.155Z,13.17
2019-06-15T11:09:23.843Z,12.43
2019-06-15T11:11:51.110Z,7.80
2019-06-15T11:14:18.451Z,9.40
2019-06-15T11:16:45.525Z,9.57
2019-06-15T11:19:16.760Z,9.53
2019-06-15T11:21:44.404Z,12.87
2019-06-15T11:24:11.347Z,8.07
2019-06-15T11:26:38.079Z,12.73
2019-06-15T11:29:05.441Z,12.53
2019-06-15T11:31:32.196Z,12.07
2019-06-15T11:33:59.169Z,10.47
2019-06-15T11:36:26.376Z,8.90
2019-06-15T11:38:53.387Z,8.53
2019-06-15T11:41:22.213Z,8.07
2019-06-15T11:43:48.992Z,10.40
2019-06-15T11:46:16.207Z,8.67
2019-06-15T11:48:42.839Z,9.40
2019-06-15T11:51:11.595Z,8.00
2019-06-15T11:53:40.036Z,8.00
2019-06-15T11:56:06.716Z,8.30
2019-06-15T11:58:34.409Z,8.20
2019-06-15T12:01:01.957Z,10.07
2019-06-15T12:03:28.900Z,7.40
2019-06-15T12:05:55.982Z,9.00
2019-06-15T12:08:23.623Z,13.33
2019-06-15T12:10:50.565Z,14.73
2019-06-15T12:13:17.824Z,16.33
2019-06-15T12:15:44.763Z,12.00
2019-06-15T12:18:12.019Z,12.67
2019-06-15T12:20:39.751Z,13.63
2019-06-15T12:23:07.809Z,10.53
2019-06-15T12:25:34.497Z,12.10
2019-06-15T12:28:01.149Z,10.00
2019-06-15T12:30:46.018Z,10.33
2019-06-15T12:33:03.304Z,11.57
2019-06-15T12:35:30.372Z,15.13
2019-06-15T12:37:57.459Z,13.53
2019-06-15T12:40:24.202Z,14.40
2019-06-15T12:42:51.961Z,8.77
2019-06-15T12:45:21.320Z,12.70
2019-06-15T12:47:49.755Z,15.50
2019-06-15T12:50:17.150Z,13.30
2019-06-15T12:52:44.666Z,15.47
2019-06-15T12:55:13.088Z,12.33
2019-06-15T12:57:40.131Z,20.87
2019-06-15T13:00:07.176Z,13.13
2019-06-15T13:02:34.899Z,21.00
2019-06-15T13:05:01.532Z,14.10
2019-06-15T13:07:28.251Z,13.67
2019-06-15T13:09:57.016Z,17.20
2019-06-15T13:12:24.571Z,12.23
2019-06-15T13:14:51.204Z,11.67
2019-06-15T13:17:20.228Z,9.67
2019-06-15T13:19:47.764Z,19.50
2019-06-15T13:22:16.137Z,14.40
2019-06-15T13:24:43.125Z,18.30
2019-06-15T13:27:09.747Z,15.70
2019-06-15T13:29:37.475Z,13.30
2019-06-15T13:32:04.205Z,19.97
2019-06-15T13:34:31.112Z,17.70
2019-06-15T13:36:58.258Z,17.00
2019-06-15T13:39:26.704Z,14.83
2019-06-15T13:41:53.321Z,24.17
2019-06-15T13:44:20.286Z,18.50
2019-06-15T13:46:48.015Z,19.60
2019-06-15T13:49:14.983Z,14.00
2019-06-15T13:51:42.348Z,20.83
2019-06-15T13:54:09.335Z,22.50
2019-06-15T13:56:37.871Z,15.93
2019-06-15T13:59:05.752Z,22.53
2019-06-15T14:01:34.451Z,13.77
2019-06-15T14:04:01.343Z,14.00
2019-06-15T14:06:28.032Z,17.47
2019-06-15T14:08:55.528Z,16.00
2019-06-15T14:11:24.365Z,18.50
2019-06-15T14:13:52.728Z,17.63
2019-06-15T14:16:20.970Z,15.50
2019-06-15T14:18:48.295Z,16.20
2019-06-15T14:21:15.087Z,25.00
2019-06-15T14:23:42.343Z,18.70
2019-06-15T14:26:09.294Z,16.30
2019-06-15T14:28:36.337Z,11.13
2019-06-15T14:31:04.771Z,17.50
2019-06-15T14:33:32.931Z,16.70
2019-06-15T14:36:01.359Z,11.70
2019-06-15T14:38:27.991Z,14.00
2019-06-15T14:40:54.966Z,16.70
2019-06-15T14:43:21.771Z,24.20
2019-06-15T14:45:59.516Z,14.37
2019-06-15T14:48:25.555Z,18.93
2019-06-15T14:50:52.184Z,18.63
2019-06-15T14:53:18.833Z,15.90
2019-06-15T14:55:46.045Z,20.53
2019-06-15T14:58:13.459Z,11.90
2019-06-15T15:00:40.150Z,13.13
2019-06-15T15:03:07.384Z,11.80
2019-06-15T15:05:36.486Z,13.90
2019-06-15T15:08:10.127Z,20.13
2019-06-15T15:10:37.437Z,13.57
2019-06-15T15:13:08.995Z,17.30
2019-06-15T15:15:36.495Z,12.87
2019-06-15T15:18:03.719Z,18.90
2019-06-15T15:20:30.967Z,16.10
2019-06-15T15:22:57.601Z,14.10
2019-06-15T15:25:26.289Z,17.80
2019-06-15T15:27:56.917Z,16.60
2019-06-15T15:30:36.242Z,16.33
2019-06-15T15:33:03.296Z,20.77
2019-06-15T15:35:31.483Z,17.60
2019-06-15T15:38:00.119Z,13.83
2019-06-15T15:40:27.610Z,17.07
2019-06-15T15:42:56.214Z,19.23
2019-06-15T15:45:26.120Z,21.53
2019-06-15T15:47:53.713Z,17.50
2019-06-15T15:50:21.060Z,21.80
2019-06-15T15:52:48.141Z,17.70
2019-06-15T15:55:17.331Z,20.90
2019-06-15T15:57:46.818Z,14.17
2019-06-15T16:00:19.904Z,14.80
2019-06-15T16:02:51.706Z,13.93
2019-06-15T16:05:16.715Z,19.73
2019-06-15T16:07:46.575Z,17.70
2019-06-15T16:10:17.983Z,20.20
2019-06-15T16:12:46.413Z,14.93
2019-06-15T16:15:15.962Z,19.03
2019-06-15T16:17:43.483Z,18.07
2019-06-15T16:20:17.065Z,15.63
2019-06-15T16:22:43.025Z,15.33
2019-06-15T16:25:12.441Z,14.90
2019-06-15T16:27:40.214Z,17.27
2019-06-15T16:30:07.372Z,24.27
2019-06-15T16:32:37.003Z,15.77
2019-06-15T16:35:03.924Z,13.13
2019-06-15T16:37:31.679Z,13.20
2019-06-15T16:39:58.656Z,7.17
2019-06-15T16:42:26.740Z,7.00
2019-06-15T16:44:58.167Z,4.80
2019-06-15T16:47:27.358Z,4.87
2019-06-15T16:49:56.664Z,6.03
2019-06-15T16:52:22.612Z,4.97
2019-06-15T16:54:49.619Z,5.23
2019-06-15T16:57:16.286Z,3.90
2019-06-15T16:59:46.759Z,5.47
2019-06-15T17:02:13.243Z,3.43
2019-06-15T17:04:40.301Z,5.40
2019-06-15T17:07:07.195Z,5.17
2019-06-15T17:09:36.070Z,8.60
2019-06-15T17:12:02.909Z,5.83
2019-06-15T17:14:30.678Z,4.40
2019-06-15T17:16:59.338Z,4.23
2019-06-15T17:19:27.351Z,3.47
2019-06-15T17:21:58.210Z,3.97
2019-06-15T17:24:26.434Z,3.17
2019-06-15T17:26:53.247Z,3.13
2019-06-15T17:29:20.250Z,3.40
2019-06-15T17:31:47.031Z,4.10
2019-06-15T17:34:16.698Z,4.73
2019-06-15T17:36:43.267Z,5.13
2019-06-15T17:39:13.784Z,3.60
2019-06-15T17:41:40.379Z,5.43
2019-06-15T17:44:07.031Z,5.23
2019-06-15T17:46:33.659Z,6.57
2019-06-15T17:49:00.296Z,7.27
2019-06-15T17:51:27.119Z,6.77
2019-06-15T17:53:56.337Z,8.33
2019-06-15T17:56:23.513Z,5.10
2019-06-15T17:58:50.555Z,6.73
2019-06-15T18:01:17.528Z,4.50
2019-06-15T18:03:53.913Z,3.10
2019-06-15T18:06:17.165Z,4.57
2019-06-15T18:08:46.532Z,4.23
2019-06-15T18:11:13.595Z,4.27
2019-06-15T18:13:41.249Z,7.27
2019-06-15T18:16:09.688Z,4.03
2019-06-15T18:18:37.221Z,5.70
2019-06-15T18:21:06.594Z,7.60
2019-06-15T18:23:33.444Z,4.10
2019-06-15T18:26:00.082Z,5.40
2019-06-15T18:28:27.158Z,3.37
2019-06-15T18:30:56.323Z,8.47
2019-06-15T18:33:27.379Z,4.13
2019-06-15T18:35:54.259Z,4.07
2019-06-15T18:38:21.424Z,3.43
2019-06-15T18:40:48.490Z,4.73
2019-06-15T18:43:16.751Z,3.75
2019-06-15T18:45:46.930Z,4.03
2019-06-15T18:48:16.598Z,4.90
2019-06-15T18:50:43.044Z,4.13
2019-06-15T18:53:11.389Z,4.27
2019-06-15T18:55:42.356Z,6.10
2019-06-15T18:58:10.096Z,5.30
2019-06-15T19:00:37.827Z,5.10
2019-06-15T19:03:06.906Z,4.67
2019-06-15T19:05:33.790Z,5.63
2019-06-15T19:08:00.492Z,4.40
2019-06-15T19:10:30.108Z,4.00
2019-06-15T19:12:56.879Z,4.00
2019-06-15T19:15:24.444Z,5.57
2019-06-15T19:17:51.092Z,5.60
2019-06-15T19:20:18.235Z,5.17
2019-06-15T19:22:47.492Z,9.87
2019-06-15T19:25:16.025Z,8.93
2019-06-15T19:27:42.884Z,11.43
2019-06-15T19:30:10.020Z,18.90
2019-06-15T19:32:37.055Z,16.53
2019-06-15T19:35:03.981Z,20.13
2019-06-15T19:37:33.842Z,19.40
2019-06-15T19:40:01.385Z,18.37
2019-06-15T19:42:29.237Z,17.97
2019-06-15T19:44:58.338Z,20.63
2019-06-15T19:47:26.509Z,20.33
2019-06-15T19:49:53.386Z,21.17
2019-06-15T19:52:20.181Z,19.03
2019-06-15T19:54:48.495Z,23.67
2019-06-15T19:57:17.100Z,19.20
2019-06-15T19:59:47.450Z,18.53
2019-06-15T20:02:16.360Z,20.53
2019-06-15T20:04:57.069Z,22.07
2019-06-15T20:07:12.544Z,20.93
2019-06-15T20:09:39.883Z,20.27
2019-06-15T20:12:17.957Z,17.87
2019-06-15T20:14:46.206Z,20.87
2019-06-15T20:17:13.990Z,15.13
2019-06-15T20:19:42.223Z,15.40
2019-06-15T20:22:09.646Z,13.27
2019-06-15T20:24:36.719Z,15.20
2019-06-15T20:27:07.028Z,18.70
2019-06-15T20:29:32.271Z,16.63
2019-06-15T20:32:01.012Z,14.10
2019-06-15T20:34:27.947Z,13.80
2019-06-15T20:36:56.625Z,14.67
2019-06-15T20:39:23.247Z,10.90
2019-06-15T20:41:50.248Z,13.27
2019-06-15T20:44:18.930Z,11.87
2019-06-15T20:46:48.095Z,12.13
2019-06-15T20:49:17.236Z,8.07
2019-06-15T20:51:48.324Z,14.77
2019-06-15T20:54:16.840Z,8.13
2019-06-15T20:56:46.173Z,7.57
2019-06-15T20:59:16.815Z,8.10
2019-06-15T21:01:43.137Z,10.33
2019-06-15T21:04:09.815Z,16.63
2019-06-15T21:06:37.207Z,10.63
2019-06-15T21:09:06.752Z,8.40
2019-06-15T21:11:36.242Z,8.33
2019-06-15T21:14:04.274Z,11.73
2019-06-15T21:16:31.514Z,4.40
2019-06-15T21:19:00.233Z,3.30
2019-06-15T21:21:29.247Z,8.20
2019-06-15T21:23:57.077Z,6.00
2019-06-15T21:26:23.867Z,3.30
2019-06-15T21:28:50.784Z,4.90
2019-06-15T21:31:18.517Z,3.40
2019-06-15T21:33:46.741Z,4.13
2019-06-15T21:36:13.747Z,5.07
2019-06-15T21:38:42.261Z,4.33
2019-06-15T21:41:10.274Z,4.40
2019-06-15T21:43:37.842Z,3.63
2019-06-15T21:46:06.516Z,4.43
2019-06-15T21:48:36.468Z,3.50
2019-06-15T21:51:07.451Z,6.43
2019-06-15T21:53:36.021Z,2.87
2019-06-15T21:56:06.861Z,7.40
2019-06-15T21:58:39.279Z,6.13
2019-06-15T22:01:17.599Z,4.63
2019-06-15T22:03:46.499Z,2.57
2019-06-15T22:06:16.602Z,2.90
2019-06-15T22:08:45.413Z,5.20
2019-06-15T22:11:12.254Z,4.40
2019-06-15T22:13:39.398Z,3.40
2019-06-15T22:16:07.492Z,6.20
2019-06-15T22:18:36.418Z,8.10
2019-06-15T22:21:03.680Z,16.23
2019-06-15T22:23:31.355Z,3.83
2019-06-15T22:25:58.500Z,3.20
2019-06-15T22:28:27.057Z,5.07
2019-06-15T22:30:56.993Z,6.23
2019-06-15T22:33:23.065Z,6.50
2019-06-15T22:35:49.966Z,7.63
2019-06-15T22:38:17.723Z,4.37
2019-06-15T22:40:47.059Z,3.70
2019-06-15T22:43:16.774Z,6.83
2019-06-15T22:45:46.975Z,6.07
2019-06-15T22:48:16.967Z,4.80
2019-06-15T22:50:46.834Z,5.17
2019-06-15T22:53:16.403Z,8.73
2019-06-15T22:55:43.428Z,6.05
2019-06-15T22:58:10.139Z,5.03
2019-06-15T23:00:37.699Z,10.73
2019-06-15T23:03:06.306Z,8.53
2019-06-15T23:05:33.251Z,9.50
2019-06-15T23:07:59.979Z,6.63
2019-06-15T23:10:26.630Z,6.10
2019-06-15T23:12:53.272Z,6.47
2019-06-15T23:15:22.942Z,7.00
2019-06-15T23:17:49.693Z,7.10
2019-06-15T23:20:17.128Z,8.47
2019-06-15T23:22:46.755Z,9.37
2019-06-15T23:25:16.616Z,7.77
2019-06-15T23:27:43.524Z,6.03
2019-06-15T23:30:11.358Z,9.93
2019-06-15T23:32:38.694Z,7.03
2019-06-15T23:35:06.849Z,7.20
2019-06-15T23:37:33.779Z,5.93
2019-06-15T23:40:19.027Z,11.23
2019-06-15T23:42:46.156Z,10.07
2019-06-15T23:45:16.113Z,5.47
2019-06-15T23:47:46.479Z,7.80
2019-06-15T23:50:13.068Z,9.77
2019-06-15T23:52:40.590Z,7.03
2019-06-15T23:55:09.123Z,7.50
2019-06-15T23:57:36.894Z,7.20
